createdAt,value
2019-06-08T00:01:14.332Z,24.17
2019-06-08T00:03:42.760Z,22.37
2019-06-08T00:06:12.478Z,22.43
2019-06-08T00:08:41.381Z,20.93
2019-06-08T00:11:09.969Z,21.83
2019-06-08T00:13:38.239Z,22.33
2019-06-08T00:16:06.627Z,22.60
2019-06-08T00:18:35.176Z,21.57
2019-06-08T00:21:03.759Z,19.57
2019-06-08T00:23:33.119Z,21.47
2019-06-08T00:26:02.580Z,21.20
2019-06-08T00:28:30.768Z,19.40
2019-06-08T00:30:59.570Z,18.50
2019-06-08T00:33:28.337Z,21.70
2019-06-08T00:35:56.949Z,20.57
2019-06-08T00:38:25.291Z,19.57
2019-06-08T00:40:53.495Z,21.27
2019-06-08T00:43:21.894Z,23.30
2019-06-08T00:45:50.241Z,23.50
2019-06-08T00:48:19.456Z,24.00
2019-06-08T00:50:49.278Z,22.57
2019-06-08T00:53:17.572Z,21.77
2019-06-08T00:55:45.847Z,22.23
2019-06-08T00:58:14.196Z,22.90
2019-06-08T01:00:42.595Z,22.87
2019-06-08T01:03:10.989Z,23.97
2019-06-08T01:05:39.479Z,24.60
2019-06-08T01:08:07.910Z,26.07
2019-06-08T01:10:36.108Z,23.07
2019-06-08T01:13:04.949Z,24.17
2019-06-08T01:15:34.506Z,23.87
2019-06-08T01:18:04.357Z,34.70
2019-06-08T01:20:33.209Z,25.27
2019-06-08T01:23:01.470Z,26.87
2019-06-08T01:25:30.140Z,25.33
2019-06-08T01:28:00.101Z,26.77
2019-06-08T01:30:30.424Z,28.20
2019-06-08T01:32:58.831Z,27.87
2019-06-08T01:35:28.770Z,29.53
2019-06-08T01:37:57.814Z,26.03
2019-06-08T01:40:29.647Z,27.23
2019-06-08T01:42:58.764Z,26.23
2019-06-08T01:45:30.312Z,25.50
2019-06-08T01:48:15.966Z,26.07
2019-06-08T01:50:32.821Z,25.33
2019-06-08T01:53:01.685Z,25.77
2019-06-08T01:55:31.149Z,25.23
2019-06-08T01:57:59.841Z,23.90
2019-06-08T02:00:30.480Z,25.60
2019-06-08T02:02:57.968Z,26.53
2019-06-08T02:05:26.188Z,32.23
2019-06-08T02:07:54.489Z,28.13
2019-06-08T02:10:22.978Z,26.53
2019-06-08T02:12:51.422Z,27.00
2019-06-08T02:15:19.990Z,28.87
2019-06-08T02:17:48.413Z,27.23
2019-06-08T02:20:17.171Z,31.03
2019-06-08T02:22:45.662Z,25.17
2019-06-08T02:25:14.029Z,28.23
2019-06-08T02:27:42.311Z,25.37
2019-06-08T02:30:12.585Z,25.53
2019-06-08T02:32:41.097Z,26.70
2019-06-08T02:35:09.754Z,27.17
2019-06-08T02:37:39.905Z,28.83
2019-06-08T02:40:08.358Z,27.17
2019-06-08T02:42:37.162Z,27.63
2019-06-08T02:45:06.278Z,23.00
2019-06-08T02:47:36.480Z,22.73
2019-06-08T02:50:08.187Z,22.27
2019-06-08T02:52:38.162Z,22.37
2019-06-08T02:55:07.230Z,21.70
2019-06-08T02:57:37.577Z,24.13
2019-06-08T03:00:07.642Z,24.33
2019-06-08T03:02:38.181Z,23.80
2019-06-08T03:05:06.765Z,21.30
2019-06-08T03:07:36.870Z,24.57
2019-06-08T03:10:05.993Z,22.93
2019-06-08T03:12:35.231Z,21.63
2019-06-08T03:15:05.199Z,22.60
2019-06-08T03:17:35.603Z,23.23
2019-06-08T03:20:05.515Z,19.63
2019-06-08T03:22:34.805Z,23.60
2019-06-08T03:25:04.891Z,25.60
2019-06-08T03:27:34.903Z,37.90
2019-06-08T03:30:16.071Z,40.03
2019-06-08T03:32:42.058Z,40.40
2019-06-08T03:35:07.195Z,37.17
2019-06-08T03:37:35.814Z,33.80
2019-06-08T03:40:05.887Z,35.10
2019-06-08T03:42:34.531Z,30.80
2019-06-08T03:45:03.359Z,27.63
2019-06-08T03:47:32.132Z,28.30
2019-06-08T03:50:00.427Z,30.60
2019-06-08T03:52:28.904Z,29.70
2019-06-08T03:54:57.372Z,24.60
2019-06-08T03:57:26.295Z,22.53
2019-06-08T03:59:54.632Z,22.13
2019-06-08T04:02:23.497Z,22.47
2019-06-08T04:04:51.723Z,23.37
2019-06-08T04:07:19.997Z,17.70
2019-06-08T04:09:49.882Z,18.33
2019-06-08T04:12:18.562Z,19.43
2019-06-08T04:14:46.816Z,20.50
2019-06-08T04:17:15.359Z,17.70
2019-06-08T04:20:09.447Z,16.93
2019-06-08T04:22:20.405Z,17.60
2019-06-08T04:24:50.407Z,17.60
2019-06-08T04:27:18.878Z,18.07
2019-06-08T04:29:47.205Z,18.30
2019-06-08T04:32:15.427Z,18.20
2019-06-08T04:34:45.604Z,18.43
2019-06-08T04:37:15.953Z,16.37
2019-06-08T04:39:44.647Z,17.20
2019-06-08T04:42:15.029Z,16.83
2019-06-08T04:44:44.657Z,18.53
2019-06-08T04:47:13.270Z,17.40
2019-06-08T04:49:43.067Z,16.20
2019-06-08T04:52:11.832Z,13.57
2019-06-08T04:54:40.773Z,15.13
2019-06-08T04:57:09.376Z,15.77
2019-06-08T04:59:38.992Z,15.43
2019-06-08T05:02:07.897Z,16.93
2019-06-08T05:04:36.456Z,15.50
2019-06-08T05:07:08.498Z,21.90
2019-06-08T05:09:37.003Z,17.97
2019-06-08T05:12:05.751Z,20.93
2019-06-08T05:14:34.070Z,17.23
2019-06-08T05:17:02.281Z,20.83
2019-06-08T05:19:30.605Z,74.60
2019-06-08T05:21:59.876Z,63.53
2019-06-08T05:24:28.177Z,47.73
2019-06-08T05:26:56.383Z,43.70
2019-06-08T05:29:25.156Z,39.67
2019-06-08T05:31:53.380Z,28.93
2019-06-08T05:34:21.704Z,23.13
2019-06-08T05:36:51.102Z,19.77
2019-06-08T05:39:22.719Z,20.27
2019-06-08T05:41:51.254Z,20.07
2019-06-08T05:44:22.595Z,20.67
2019-06-08T05:46:50.772Z,19.27
2019-06-08T05:49:19.160Z,18.50
2019-06-08T05:51:47.912Z,19.90
2019-06-08T05:54:16.531Z,22.43
2019-06-08T05:56:45.925Z,29.57
2019-06-08T05:59:15.911Z,24.83
2019-06-08T06:01:46.652Z,23.40
2019-06-08T06:04:16.150Z,20.90
2019-06-08T06:06:44.678Z,16.37
2019-06-08T06:09:12.959Z,18.67
2019-06-08T06:11:42.815Z,19.57
2019-06-08T06:14:11.489Z,20.33
2019-06-08T06:16:40.880Z,16.85
2019-06-08T06:19:10.410Z,15.90
2019-06-08T06:21:39.024Z,16.55
2019-06-08T06:24:07.776Z,16.00
2019-06-08T06:26:36.478Z,15.33
2019-06-08T06:29:04.834Z,14.20
2019-06-08T06:31:33.296Z,13.65
2019-06-08T06:34:01.826Z,13.25
2019-06-08T06:36:30.668Z,11.90
2019-06-08T06:39:00.248Z,12.88
2019-06-08T06:41:28.478Z,12.37
2019-06-08T06:43:56.789Z,12.80
2019-06-08T06:46:25.212Z,12.10
2019-06-08T06:48:53.800Z,12.33
2019-06-08T06:51:26.268Z,11.50
2019-06-08T06:53:53.282Z,11.05
2019-06-08T06:56:21.736Z,21.65
2019-06-08T06:58:51.346Z,20.77
2019-06-08T07:01:19.859Z,11.83
2019-06-08T07:03:48.445Z,12.25
2019-06-08T07:06:18.287Z,11.60
2019-06-08T07:08:46.499Z,13.53
2019-06-08T07:11:15.662Z,13.05
2019-06-08T07:13:44.554Z,11.33
2019-06-08T07:16:18.538Z,10.90
2019-06-08T07:18:42.932Z,11.40
2019-06-08T07:21:11.389Z,12.15
2019-06-08T07:23:39.609Z,11.73
2019-06-08T07:26:08.087Z,8.68
2019-06-08T07:28:36.445Z,8.13
2019-06-08T07:31:04.648Z,8.18
2019-06-08T07:33:33.088Z,7.50
2019-06-08T07:36:01.760Z,9.53
2019-06-08T07:38:30.504Z,10.30
2019-06-08T07:41:01.431Z,8.75
2019-06-08T07:43:29.879Z,15.88
2019-06-08T07:45:58.508Z,9.53
2019-06-08T07:48:27.264Z,6.00
2019-06-08T07:50:56.393Z,5.78
2019-06-08T07:53:25.856Z,5.25
2019-06-08T07:55:56.275Z,5.25
2019-06-08T07:58:24.796Z,6.00
2019-06-08T08:00:54.947Z,5.37
2019-06-08T08:03:23.998Z,5.17
2019-06-08T08:05:53.547Z,4.80
2019-06-08T08:08:22.594Z,4.83
2019-06-08T08:10:50.787Z,5.40
2019-06-08T08:13:19.766Z,5.00
2019-06-08T08:15:49.052Z,5.47
2019-06-08T08:18:17.846Z,4.83
2019-06-08T08:20:47.061Z,4.20
2019-06-08T08:23:17.342Z,4.53
2019-06-08T08:25:47.402Z,4.55
2019-06-08T08:28:18.183Z,4.30
2019-06-08T08:30:49.343Z,4.60
2019-06-08T08:33:18.397Z,3.80
2019-06-08T08:35:48.194Z,18.35
2019-06-08T08:38:17.740Z,4.20
2019-06-08T08:40:49.755Z,4.60
2019-06-08T08:43:17.947Z,4.28
2019-06-08T08:45:47.688Z,4.50
2019-06-08T08:48:25.514Z,4.62
2019-06-08T08:50:48.330Z,4.50
2019-06-08T08:53:18.064Z,4.60
2019-06-08T08:55:48.072Z,4.40
2019-06-08T08:58:18.654Z,4.42
2019-06-08T09:00:48.709Z,4.22
2019-06-08T09:03:28.821Z,4.35
2019-06-08T09:05:48.506Z,4.42
2019-06-08T09:08:18.275Z,4.60
2019-06-08T09:10:48.041Z,3.87
2019-06-08T09:13:18.748Z,4.70
2019-06-08T09:15:47.958Z,4.92
2019-06-08T09:18:18.647Z,5.28
2019-06-08T09:20:47.895Z,5.75
2019-06-08T09:23:21.538Z,5.75
2019-06-08T09:25:48.353Z,7.47
2019-06-08T09:28:18.586Z,6.45
2019-06-08T09:30:48.418Z,6.08
2019-06-08T09:33:18.589Z,6.17
2019-06-08T09:35:47.915Z,6.37
2019-06-08T09:38:18.614Z,6.97
2019-06-08T09:40:48.756Z,6.78
2019-06-08T09:43:18.972Z,10.43
2019-06-08T09:45:48.951Z,8.20
2019-06-08T09:48:18.290Z,7.20
2019-06-08T09:50:48.619Z,7.55
2019-06-08T09:53:26.757Z,7.20
2019-06-08T09:55:48.163Z,7.05
2019-06-08T09:58:18.109Z,6.33
2019-06-08T10:00:48.639Z,5.33
2019-06-08T10:03:18.666Z,18.50
2019-06-08T10:05:48.480Z,43.68
2019-06-08T10:08:20.354Z,5.90
2019-06-08T10:10:48.376Z,6.50
2019-06-08T10:13:18.886Z,6.30
2019-06-08T10:15:48.746Z,7.08
2019-06-08T10:18:17.667Z,6.10
2019-06-08T10:20:48.187Z,5.53
2019-06-08T10:23:28.153Z,5.65
2019-06-08T10:25:48.204Z,5.70
2019-06-08T10:28:20.971Z,5.33
2019-06-08T10:30:48.513Z,6.00
2019-06-08T10:33:18.506Z,5.80
2019-06-08T10:35:48.003Z,6.50
2019-06-08T10:38:18.083Z,8.75
2019-06-08T10:41:13.047Z,10.80
2019-06-08T10:43:33.043Z,5.90
2019-06-08T10:46:08.442Z,5.67
2019-06-08T10:48:32.316Z,5.37
2019-06-08T10:51:03.745Z,4.80
2019-06-08T10:53:45.016Z,5.12
2019-06-08T10:56:01.760Z,5.03
2019-06-08T10:58:30.940Z,5.00
2019-06-08T11:01:02.171Z,4.85
2019-06-08T11:03:30.665Z,4.90
2019-06-08T11:06:01.192Z,5.45
2019-06-08T11:08:29.487Z,5.70
2019-06-08T11:11:00.013Z,5.70
2019-06-08T11:13:29.207Z,5.80
2019-06-08T11:15:58.690Z,6.00
2019-06-08T11:18:28.680Z,6.40
2019-06-08T11:20:58.450Z,6.10
2019-06-08T11:23:28.803Z,5.30
2019-06-08T11:26:02.910Z,6.30
2019-06-08T11:28:28.283Z,6.05
2019-06-08T11:30:57.086Z,5.92
2019-06-08T11:33:25.744Z,6.20
2019-06-08T11:35:54.408Z,6.70
2019-06-08T11:38:22.934Z,6.17
2019-06-08T11:40:51.191Z,6.15
2019-06-08T11:43:19.682Z,5.42
2019-06-08T11:45:48.526Z,5.70
2019-06-08T11:48:18.430Z,10.88
2019-06-08T11:50:49.013Z,6.00
2019-06-08T11:53:18.071Z,6.30
2019-06-08T11:55:50.729Z,6.08
2019-06-08T11:58:22.545Z,5.55
2019-06-08T12:00:48.943Z,5.80
2019-06-08T12:03:17.861Z,5.62
2019-06-08T12:05:47.867Z,5.53
2019-06-08T12:08:17.600Z,6.67
2019-06-08T12:10:48.949Z,5.35
2019-06-08T12:13:17.721Z,5.78
2019-06-08T12:15:48.744Z,5.92
2019-06-08T12:18:18.112Z,5.80
2019-06-08T12:20:48.887Z,6.67
2019-06-08T12:23:17.281Z,6.20
2019-06-08T12:25:45.540Z,6.65
2019-06-08T12:28:14.713Z,5.90
2019-06-08T12:30:42.960Z,7.05
2019-06-08T12:33:12.691Z,6.30
2019-06-08T12:35:41.633Z,6.75
2019-06-08T12:38:11.164Z,49.53
2019-06-08T12:40:41.074Z,9.28
2019-06-08T12:43:11.639Z,7.12
2019-06-08T12:45:40.162Z,7.22
2019-06-08T12:48:14.148Z,6.72
2019-06-08T12:50:40.387Z,12.10
2019-06-08T12:53:14.469Z,7.58
2019-06-08T12:55:38.809Z,7.40
2019-06-08T12:58:08.534Z,7.03
2019-06-08T13:00:39.765Z,7.90
2019-06-08T13:03:10.152Z,10.18
2019-06-08T13:05:38.634Z,8.00
2019-06-08T13:08:09.744Z,7.40
2019-06-08T13:10:38.355Z,7.40
2019-06-08T13:13:08.451Z,6.62
2019-06-08T13:15:38.479Z,6.60
2019-06-08T13:18:08.937Z,7.42
2019-06-08T13:20:38.936Z,8.15
2019-06-08T13:23:09.606Z,7.53
2019-06-08T13:25:43.500Z,7.53
2019-06-08T13:28:13.118Z,7.87
2019-06-08T13:30:38.989Z,7.28
2019-06-08T13:33:08.150Z,7.08
2019-06-08T13:35:39.454Z,6.50
2019-06-08T13:38:08.762Z,7.00
2019-06-08T13:40:40.339Z,6.58
2019-06-08T13:43:08.222Z,6.65
2019-06-08T13:45:39.429Z,6.90
2019-06-08T13:48:08.890Z,6.83
2019-06-08T13:50:37.334Z,7.05
2019-06-08T13:53:10.586Z,7.35
2019-06-08T13:55:49.499Z,8.00
2019-06-08T13:58:07.234Z,7.70
2019-06-08T14:00:38.184Z,9.38
2019-06-08T14:03:08.502Z,8.90
2019-06-08T14:05:38.794Z,9.15
2019-06-08T14:08:10.538Z,8.10
2019-06-08T14:10:38.950Z,8.55
2019-06-08T14:13:07.770Z,8.70
2019-06-08T14:15:37.969Z,8.63
2019-06-08T14:18:08.781Z,8.80
2019-06-08T14:20:38.588Z,8.23
2019-06-08T14:23:08.732Z,8.33
2019-06-08T14:25:47.960Z,9.05
2019-06-08T14:28:06.605Z,9.18
2019-06-08T14:30:34.924Z,10.45
2019-06-08T14:33:03.638Z,10.00
2019-06-08T14:35:32.144Z,9.98
2019-06-08T14:38:00.616Z,9.73
2019-06-08T14:40:32.662Z,9.53
2019-06-08T14:42:58.816Z,9.43
2019-06-08T14:45:29.571Z,9.95
2019-06-08T14:47:58.703Z,10.30
2019-06-08T14:50:31.183Z,9.80
2019-06-08T14:52:59.998Z,8.73
2019-06-08T14:55:34.117Z,8.80
2019-06-08T14:57:59.845Z,9.15
2019-06-08T15:00:29.614Z,8.73
2019-06-08T15:02:59.253Z,10.72
2019-06-08T15:05:30.508Z,8.70
2019-06-08T15:08:00.794Z,6.12
2019-06-08T15:10:29.766Z,5.45
2019-06-08T15:12:58.324Z,4.83
2019-06-08T15:15:30.429Z,3.95
2019-06-08T15:17:58.142Z,3.65
2019-06-08T15:20:26.527Z,3.70
2019-06-08T15:22:54.920Z,3.50
2019-06-08T15:25:24.623Z,4.00
2019-06-08T15:27:53.798Z,4.03
2019-06-08T15:30:23.060Z,3.70
2019-06-08T15:32:52.023Z,3.42
2019-06-08T15:35:21.077Z,3.58
2019-06-08T15:37:49.507Z,3.60
2019-06-08T15:40:18.109Z,3.42
2019-06-08T15:42:47.990Z,3.65
2019-06-08T15:45:18.305Z,3.67
2019-06-08T15:47:48.551Z,3.80
2019-06-08T15:50:17.946Z,3.08
2019-06-08T15:52:48.143Z,3.62
2019-06-08T15:55:19.364Z,3.10
2019-06-08T15:57:47.538Z,3.60
2019-06-08T16:00:18.291Z,3.42
2019-06-08T16:02:46.157Z,3.25
2019-06-08T16:05:14.793Z,3.30
2019-06-08T16:07:43.825Z,3.60
2019-06-08T16:10:12.458Z,3.60
2019-06-08T16:12:40.775Z,3.08
2019-06-08T16:15:08.979Z,3.12
2019-06-08T16:17:37.295Z,2.90
2019-06-08T16:20:05.832Z,3.10
2019-06-08T16:22:35.604Z,3.62
2019-06-08T16:25:05.610Z,3.25
2019-06-08T16:27:34.114Z,3.37
2019-06-08T16:30:09.028Z,3.12
2019-06-08T16:32:33.472Z,4.17
2019-06-08T16:35:01.973Z,4.65
2019-06-08T16:37:31.504Z,3.67
2019-06-08T16:39:59.978Z,3.40
2019-06-08T16:42:28.418Z,4.40
2019-06-08T16:44:56.927Z,3.55
2019-06-08T16:47:26.972Z,3.90
2019-06-08T16:49:55.364Z,4.85
2019-06-08T16:52:23.830Z,3.50
2019-06-08T16:54:52.681Z,3.50
2019-06-08T16:57:21.162Z,5.03
2019-06-08T16:59:50.616Z,3.58
2019-06-08T17:02:18.960Z,4.10
2019-06-08T17:04:47.141Z,4.08
2019-06-08T17:07:17.642Z,3.65
2019-06-08T17:09:46.333Z,4.00
2019-06-08T17:12:15.591Z,3.80
2019-06-08T17:14:43.881Z,3.85
2019-06-08T17:17:12.843Z,3.67
2019-06-08T17:19:41.286Z,4.17
2019-06-08T17:22:09.926Z,3.62
2019-06-08T17:24:38.645Z,3.95
2019-06-08T17:27:07.396Z,4.53
2019-06-08T17:29:36.822Z,3.95
2019-06-08T17:32:05.830Z,4.45
2019-06-08T17:34:34.880Z,3.90
2019-06-08T17:37:03.860Z,5.90
2019-06-08T17:39:32.314Z,5.12
2019-06-08T17:42:01.092Z,4.12
2019-06-08T17:44:29.291Z,4.50
2019-06-08T17:46:58.045Z,3.75
2019-06-08T17:49:26.358Z,4.05
2019-06-08T17:51:55.121Z,4.30
2019-06-08T17:54:23.939Z,3.85
2019-06-08T17:56:52.402Z,4.17
2019-06-08T17:59:20.793Z,4.15
2019-06-08T18:01:50.487Z,4.20
2019-06-08T18:04:19.177Z,6.33
2019-06-08T18:06:47.929Z,3.55
2019-06-08T18:09:17.532Z,4.28
2019-06-08T18:11:48.034Z,4.60
2019-06-08T18:14:18.108Z,4.45
2019-06-08T18:16:47.931Z,4.53
2019-06-08T18:19:28.297Z,4.97
2019-06-08T18:22:04.441Z,5.30
2019-06-08T18:24:28.152Z,4.50
2019-06-08T18:26:58.233Z,5.10
2019-06-08T18:29:27.803Z,7.30
2019-06-08T18:31:58.187Z,10.10
2019-06-08T18:34:28.508Z,53.02
2019-06-08T18:36:57.950Z,105.55
2019-06-08T18:39:27.282Z,115.32
2019-06-08T18:41:58.218Z,59.77
2019-06-08T18:44:28.485Z,25.43
2019-06-08T18:46:57.692Z,10.13
2019-06-08T18:49:28.840Z,7.47
2019-06-08T18:51:58.334Z,7.30
2019-06-08T18:54:28.632Z,15.80
2019-06-08T18:56:59.015Z,11.60
2019-06-08T18:59:28.597Z,12.63
2019-06-08T19:01:57.562Z,18.98
2019-06-08T19:04:30.854Z,25.60
2019-06-08T19:06:58.955Z,18.90
2019-06-08T19:09:28.654Z,22.67
2019-06-08T19:11:57.458Z,20.53
2019-06-08T19:14:28.694Z,11.40
2019-06-08T19:16:58.129Z,11.18
2019-06-08T19:19:28.538Z,5.70
2019-06-08T19:21:58.016Z,5.90
2019-06-08T19:24:28.075Z,5.60
2019-06-08T19:26:58.306Z,6.47
2019-06-08T19:29:28.558Z,5.45
2019-06-08T19:31:57.217Z,6.05
2019-06-08T19:34:29.018Z,5.97
2019-06-08T19:36:57.441Z,6.60
2019-06-08T19:39:28.315Z,7.10
2019-06-08T19:42:00.122Z,6.83
2019-06-08T19:44:28.848Z,6.30
2019-06-08T19:46:58.473Z,10.70
2019-06-08T19:49:28.237Z,9.55
2019-06-08T19:51:58.668Z,8.57
2019-06-08T19:54:28.179Z,8.63
2019-06-08T19:56:57.703Z,8.00
2019-06-08T19:59:27.382Z,8.23
2019-06-08T20:01:57.415Z,8.50
2019-06-08T20:04:27.660Z,7.00
2019-06-08T20:07:00.489Z,7.10
2019-06-08T20:09:32.307Z,6.58
2019-06-08T20:12:00.561Z,5.77
2019-06-08T20:14:37.269Z,5.50
2019-06-08T20:17:05.272Z,5.30
2019-06-08T20:19:37.345Z,6.50
2019-06-08T20:22:09.938Z,7.53
2019-06-08T20:24:52.254Z,5.87
2019-06-08T20:27:37.264Z,7.80
2019-06-08T20:30:12.205Z,9.70
2019-06-08T20:32:38.573Z,10.03
2019-06-08T20:35:08.524Z,10.60
2019-06-08T20:37:37.623Z,10.07
2019-06-08T20:40:13.589Z,8.50
2019-06-08T20:42:38.748Z,6.70
2019-06-08T20:45:08.265Z,7.40
2019-06-08T20:47:39.167Z,5.93
2019-06-08T20:50:07.980Z,7.35
2019-06-08T20:52:37.726Z,9.17
2019-06-08T20:55:07.912Z,8.65
2019-06-08T20:57:36.768Z,7.53
2019-06-08T21:00:09.129Z,6.93
2019-06-08T21:02:41.311Z,7.90
2019-06-08T21:05:10.010Z,9.43
2019-06-08T21:07:39.875Z,10.77
2019-06-08T21:10:08.932Z,10.40
2019-06-08T21:12:37.926Z,8.77
2019-06-08T21:15:07.073Z,8.87
2019-06-08T21:17:38.215Z,8.80
2019-06-08T21:20:05.522Z,11.50
2019-06-08T21:22:34.137Z,14.40
2019-06-08T21:25:03.160Z,11.70
2019-06-08T21:27:32.355Z,8.63
2019-06-08T21:30:08.520Z,6.70
2019-06-08T21:32:30.981Z,8.03
2019-06-08T21:35:00.400Z,6.60
2019-06-08T21:37:28.804Z,5.93
2019-06-08T21:40:03.474Z,5.97
2019-06-08T21:42:28.124Z,6.37
2019-06-08T21:44:59.976Z,6.87
2019-06-08T21:47:27.261Z,6.87
2019-06-08T21:49:58.901Z,6.10
2019-06-08T21:52:26.885Z,6.30
2019-06-08T21:55:00.577Z,6.33
2019-06-08T21:57:27.612Z,7.50
2019-06-08T22:00:18.233Z,6.77
2019-06-08T22:02:28.212Z,6.10
2019-06-08T22:05:01.663Z,5.30
2019-06-08T22:07:28.382Z,5.57
2019-06-08T22:09:59.166Z,5.53
2019-06-08T22:12:28.611Z,5.40
2019-06-08T22:14:59.779Z,5.30
2019-06-08T22:17:28.837Z,6.13
2019-06-08T22:19:59.259Z,5.43
2019-06-08T22:22:27.345Z,6.47
2019-06-08T22:24:58.315Z,5.47
2019-06-08T22:27:27.240Z,6.00
2019-06-08T22:29:58.199Z,4.00
2019-06-08T22:32:27.644Z,4.80
2019-06-08T22:34:59.603Z,5.27
2019-06-08T22:37:26.437Z,6.67
2019-06-08T22:39:57.798Z,7.30
2019-06-08T22:42:25.997Z,7.10
2019-06-08T22:44:54.526Z,7.40
2019-06-08T22:47:23.586Z,6.40
2019-06-08T22:49:53.187Z,5.87
2019-06-08T22:52:22.020Z,4.47
2019-06-08T22:54:50.341Z,4.50
2019-06-08T22:57:18.580Z,4.17
2019-06-08T22:59:47.716Z,4.73
2019-06-08T23:02:18.116Z,6.10
2019-06-08T23:04:47.513Z,5.77
2019-06-08T23:07:26.537Z,6.63
2019-06-08T23:09:47.757Z,7.00
2019-06-08T23:12:18.212Z,5.17
2019-06-08T23:14:47.180Z,4.70
2019-06-08T23:17:17.768Z,4.13
2019-06-08T23:19:48.058Z,4.60
2019-06-08T23:22:17.637Z,5.03
2019-06-08T23:24:47.645Z,4.47
2019-06-08T23:27:17.595Z,4.37
2019-06-08T23:29:47.518Z,4.03
2019-06-08T23:32:18.208Z,4.27
2019-06-08T23:34:47.772Z,5.10
2019-06-08T23:37:18.270Z,8.60
2019-06-08T23:39:47.105Z,7.43
2019-06-08T23:42:17.722Z,4.40
2019-06-08T23:44:47.190Z,4.63
2019-06-08T23:47:17.828Z,4.77
2019-06-08T23:49:47.407Z,4.80
2019-06-08T23:52:17.835Z,4.20
2019-06-08T23:54:47.748Z,4.53
2019-06-08T23:57:17.901Z,4.50
2019-06-08T23:59:47.745Z,4.30
